Time;durP1;ratioP1;P1;durP2;ratioP2;P2;SDS_P1;SDS_P2;PMS_P1;PMS_P2;Temp;Humidity;BMP_temperature;BMP_pressure;BME280_temperature;BME280_humidity;BME280_pressure;Samples;Min_cycle;Max_cycle;Signal;HPM_P1;HPM_P2
2021/08/15 00:03:12;;;;;;;9.13;4.57;;;;;;;17.75;58.52;100088.03;10443540;28;20103;-59
2021/08/15 00:08:14;;;;;;;10.65;4.30;;;;;;;17.71;58.55;100075.19;10442971;28;20056;-60
2021/08/15 00:13:16;;;;;;;9.48;5.03;;;;;;;17.67;58.79;100066.69;10448694;28;20180;-59
2021/08/15 00:18:17;;;;;;;11.85;4.90;;;;;;;17.64;58.55;100074.91;10441990;28;20114;-60
2021/08/15 00:23:19;;;;;;;9.98;4.43;;;;;;;17.52;59.01;100081.25;10451117;28;20089;-59
2021/08/15 00:28:21;;;;;;;9.68;4.68;;;;;;;17.38;59.12;100078.13;10450369;28;20865;-59
2021/08/15 00:33:22;;;;;;;12.25;4.97;;;;;;;17.29;59.16;100074.41;10451693;28;20098;-59
2021/08/15 00:38:24;;;;;;;14.52;5.10;;;;;;;17.22;59.49;100073.25;10449892;28;20128;-59
2021/08/15 00:43:27;;;;;;;10.00;4.70;;;;;;;17.26;59.43;100073.84;10465874;28;20123;-59
2021/08/15 00:48:29;;;;;;;10.60;4.88;;;;;;;17.18;59.70;100071.00;10422976;28;20137;-60
2021/08/15 00:53:32;;;;;;;10.23;5.22;;;;;;;17.15;59.51;100072.09;10449714;28;20056;-60
2021/08/15 00:58:37;;;;;;;9.38;4.70;;;;;;;17.15;59.88;100065.97;10449974;28;20076;-60
2021/08/15 01:03:39;;;;;;;11.18;5.07;;;;;;;17.14;59.51;100065.13;10448525;28;20466;-59
2021/08/15 01:08:41;;;;;;;11.93;4.93;;;;;;;16.97;59.95;100065.72;10464390;28;20088;-60
2021/08/15 01:13:43;;;;;;;12.32;5.10;;;;;;;16.90;60.21;100053.97;10448918;28;20099;-59
2021/08/15 01:18:45;;;;;;;13.15;5.28;;;;;;;16.83;60.37;100045.72;10448484;28;20156;-59
2021/08/15 01:23:47;;;;;;;8.02;4.03;;;;;;;16.74;60.24;100051.78;10447870;28;20470;-60
2021/08/15 01:28:49;;;;;;;13.23;5.05;;;;;;;16.64;60.54;100042.13;10437819;28;20050;-59
2021/08/15 01:33:51;;;;;;;10.68;4.78;;;;;;;16.58;60.73;100046.13;10447931;28;20084;-59
2021/08/15 01:38:54;;;;;;;10.63;4.38;;;;;;;16.58;60.79;100045.28;10463645;28;20123;-59
2021/08/15 01:43:57;;;;;;;8.93;4.68;;;;;;;16.48;60.57;100045.19;10447887;28;20475;-60
2021/08/15 01:49:01;;;;;;;12.55;4.68;;;;;;;16.23;60.30;100043.69;10438183;28;20095;-59
2021/08/15 01:54:04;;;;;;;9.45;4.85;;;;;;;15.95;61.23;100048.66;10447528;28;20088;-60
2021/08/15 01:59:06;;;;;;;13.93;5.13;;;;;;;16.04;61.43;100040.84;10448267;28;20128;-60
2021/08/15 02:04:07;;;;;;;10.73;4.60;;;;;;;16.10;61.38;100055.38;10450739;28;20072;-59
2021/08/15 02:09:09;;;;;;;9.52;4.95;;;;;;;16.10;61.74;100050.91;10442234;28;20614;-60
2021/08/15 02:14:11;;;;;;;10.25;5.10;;;;;;;15.96;61.59;100055.59;10454140;28;20080;-60
2021/08/15 02:19:12;;;;;;;12.00;5.00;;;;;;;15.91;62.01;100041.97;10455041;28;20055;-60
2021/08/15 02:24:14;;;;;;;13.73;5.55;;;;;;;15.86;62.07;100049.41;10453859;28;20087;-59
2021/08/15 02:29:16;;;;;;;9.00;4.32;;;;;;;15.82;62.01;100055.88;10454185;28;20053;-59
2021/08/15 02:34:18;;;;;;;9.30;4.55;;;;;;;15.75;61.70;100042.34;10468505;28;20466;-59
2021/08/15 02:39:20;;;;;;;10.65;5.00;;;;;;;15.40;62.44;100038.97;10445324;28;20079;-60
2021/08/15 02:44:21;;;;;;;12.35;5.25;;;;;;;15.33;62.72;100037.75;10453515;28;20048;-60
2021/08/15 02:49:23;;;;;;;10.35;4.95;;;;;;;15.35;62.42;100030.56;10447475;28;20390;-60
2021/08/15 02:54:25;;;;;;;8.93;4.88;;;;;;;15.38;62.37;100027.72;10452643;28;20148;-59
2021/08/15 02:59:26;;;;;;;10.40;4.85;;;;;;;15.31;62.45;100026.50;10453639;28;20052;-59
2021/08/15 03:04:28;;;;;;;11.23;5.00;;;;;;;15.26;62.33;100026.03;10447934;28;20128;-59
2021/08/15 03:09:30;;;;;;;9.70;4.75;;;;;;;14.97;63.05;100024.78;10447546;28;20494;-59
2021/08/15 03:14:32;;;;;;;8.50;5.00;;;;;;;15.10;62.99;100030.81;10444179;28;20416;-59
2021/08/15 03:19:35;;;;;;;12.15;4.95;;;;;;;15.17;63.03;100027.56;10445654;28;20068;-59
2021/08/15 03:24:37;;;;;;;11.05;5.20;;;;;;;15.08;62.93;100019.56;10444482;28;20474;-60
2021/08/15 03:29:39;;;;;;;10.05;4.55;;;;;;;14.95;63.03;100009.13;10445400;28;20119;-59
2021/08/15 03:34:40;;;;;;;10.02;4.65;;;;;;;14.92;62.94;100011.16;10444653;28;20571;-59
2021/08/15 03:39:44;;;;;;;9.38;5.03;;;;;;;14.88;62.72;100005.25;10445547;28;20076;-59
2021/08/15 03:44:45;;;;;;;8.27;4.60;;;;;;;14.87;62.98;100000.97;10444434;28;20489;-59
2021/08/15 03:49:47;;;;;;;12.77;5.38;;;;;;;14.53;63.07;100007.91;10453849;28;20087;-59
2021/08/15 03:54:49;;;;;;;13.27;5.47;;;;;;;14.62;62.96;100000.28;10451682;28;20081;-59
2021/08/15 03:59:51;;;;;;;11.90;5.38;;;;;;;14.58;63.37;99997.91;10452278;28;20113;-59
2021/08/15 04:04:52;;;;;;;11.10;4.80;;;;;;;14.64;63.14;99990.47;10453377;28;20080;-59
2021/08/15 04:09:54;;;;;;;9.00;5.05;;;;;;;14.65;63.04;99997.44;10451145;28;20085;-59
2021/08/15 04:14:56;;;;;;;10.25;5.15;;;;;;;14.45;62.51;99994.47;10411653;28;20441;-59
2021/08/15 04:19:58;;;;;;;8.77;5.20;;;;;;;14.35;63.30;100000.53;10448394;28;20049;-59
2021/08/15 04:24:59;;;;;;;10.60;4.80;;;;;;;14.36;63.31;99996.94;10451763;28;20084;-59
2021/08/15 04:30:03;;;;;;;11.43;5.80;;;;;;;14.42;62.90;99997.34;10445777;28;20128;-59
2021/08/15 04:35:06;;;;;;;29.45;6.20;;;;;;;14.43;63.10;99992.91;10448134;28;20136;-59
2021/08/15 04:40:09;;;;;;;39.35;6.00;;;;;;;14.51;63.10;99985.31;10451456;28;20049;-60
2021/08/15 04:45:10;;;;;;;21.00;5.68;;;;;;;14.57;63.12;99980.41;10450709;28;20501;-59
2021/08/15 04:50:12;;;;;;;52.70;6.60;;;;;;;14.53;62.62;99986.03;10449213;28;20076;-59
2021/08/15 04:55:14;;;;;;;21.42;4.97;;;;;;;14.66;62.44;99989.41;10466510;28;20044;-59
2021/08/15 05:00:16;;;;;;;39.05;5.15;;;;;;;15.04;61.89;99984.69;10449691;28;20458;-59
2021/08/15 05:05:17;;;;;;;20.60;5.20;;;;;;;15.35;61.37;99985.78;10444064;28;20072;-59
2021/08/15 05:10:19;;;;;;;198.95;9.43;;;;;;;15.62;59.89;99990.69;10449500;28;20132;-59
2021/08/15 05:15:21;;;;;;;11.88;4.07;;;;;;;15.88;59.09;99985.03;10437588;28;20080;-59
2021/08/15 05:20:23;;;;;;;6.65;3.90;;;;;;;16.16;58.51;99987.09;10445403;28;20107;-59
2021/08/15 05:25:25;;;;;;;7.28;4.55;;;;;;;16.36;58.23;99981.97;10447783;28;20448;-59
2021/08/15 05:30:27;;;;;;;7.25;4.32;;;;;;;16.47;58.21;99987.25;10445921;28;20087;-60
2021/08/15 05:35:29;;;;;;;8.45;4.28;;;;;;;16.51;58.05;99980.75;10446432;28;20160;-60
2021/08/15 05:40:30;;;;;;;6.22;3.97;;;;;;;16.27;58.56;99983.56;10437075;28;20061;-59
2021/08/15 05:45:32;;;;;;;8.20;4.03;;;;;;;16.28;58.72;99982.63;10445854;28;20130;-59
2021/08/15 05:50:35;;;;;;;7.75;4.10;;;;;;;16.36;58.90;99979.34;10446001;28;20049;-59
2021/08/15 05:55:37;;;;;;;8.07;4.68;;;;;;;16.75;58.26;99983.97;10447276;28;20073;-59
2021/08/15 06:00:38;;;;;;;11.82;4.32;;;;;;;17.05;57.59;99978.72;10445553;28;20087;-59
2021/08/15 06:05:40;;;;;;;10.93;4.60;;;;;;;16.92;57.79;99980.72;10446481;28;20632;-59
2021/08/15 06:10:42;;;;;;;7.32;4.05;;;;;;;16.93;58.13;99974.50;10438625;28;20049;-60
2021/08/15 06:15:44;;;;;;;7.75;4.20;;;;;;;17.24;57.88;99973.50;10425002;28;20462;-60
2021/08/15 06:20:46;;;;;;;8.73;4.20;;;;;;;17.57;57.32;99975.06;10431806;28;20068;-60
2021/08/15 06:25:48;;;;;;;11.07;4.45;;;;;;;17.86;56.63;99970.69;10444543;28;20361;-59
2021/08/15 06:30:49;;;;;;;9.25;5.03;;;;;;;18.15;56.63;99966.25;10427937;28;20924;-59
2021/08/15 06:35:51;;;;;;;9.15;4.90;;;;;;;18.14;56.14;99971.66;10433195;28;20044;-59
2021/08/15 06:40:53;;;;;;;8.68;5.00;;;;;;;18.32;55.95;99962.94;10416808;28;20592;-59
2021/08/15 06:45:55;;;;;;;9.32;5.25;;;;;;;18.40;55.59;99962.25;10441851;28;20041;-59
2021/08/15 06:50:58;;;;;;;10.40;5.68;;;;;;;18.12;55.96;99961.22;10443257;28;20048;-59
2021/08/15 06:56:01;;;;;;;10.98;5.20;;;;;;;17.90;56.80;99958.00;10422196;28;20064;-59
2021/08/15 07:01:03;;;;;;;7.10;4.60;;;;;;;18.14;56.47;99946.03;10445846;28;20049;-59
2021/08/15 07:06:05;;;;;;;10.98;5.95;;;;;;;18.56;55.36;99954.56;10445716;28;20048;-58
2021/08/15 07:11:07;;;;;;;14.07;5.47;;;;;;;18.72;55.01;99936.25;10436746;28;20098;-59
2021/08/15 07:16:09;;;;;;;12.75;6.40;;;;;;;18.98;54.50;99931.16;10445742;28;20045;-58
2021/08/15 07:21:11;;;;;;;10.20;5.57;;;;;;;18.77;54.35;99939.31;10443981;28;20412;-58
2021/08/15 07:26:13;;;;;;;14.25;5.78;;;;;;;18.73;54.82;99937.91;10444563;28;20073;-59
2021/08/15 07:31:14;;;;;;;11.07;4.85;;;;;;;18.96;55.00;99933.13;10445009;28;20135;-59
2021/08/15 07:36:16;;;;;;;17.67;5.97;;;;;;;19.23;54.10;99926.09;10428960;28;20075;-59
2021/08/15 07:41:18;;;;;;;10.07;5.20;;;;;;;19.59;53.53;99915.53;10443243;28;20076;-59
2021/08/15 07:46:20;;;;;;;14.95;5.53;;;;;;;20.67;51.08;99909.94;10438112;28;20053;-59
2021/08/15 07:51:22;;;;;;;10.18;5.28;;;;;;;21.40;49.49;99903.16;10442967;28;20131;-60
2021/08/15 07:56:24;;;;;;;18.60;5.40;;;;;;;22.21;48.17;99896.19;10443005;28;20037;-61
2021/08/15 08:01:26;;;;;;;8.32;4.65;;;;;;;23.17;46.50;99889.84;10445120;28;20076;-60
2021/08/15 08:06:28;;;;;;;11.55;5.30;;;;;;;23.51;44.98;99884.22;10443185;28;20422;-60
2021/08/15 08:11:30;;;;;;;12.77;5.05;;;;;;;23.98;44.41;99874.22;10443367;28;20103;-60
2021/08/15 08:16:31;;;;;;;12.13;4.80;;;;;;;24.09;44.01;99863.16;10443878;28;20049;-60
2021/08/15 08:21:33;;;;;;;10.05;5.00;;;;;;;24.33;43.48;99863.94;10442449;28;20509;-59
2021/08/15 08:26:35;;;;;;;14.07;4.88;;;;;;;24.76;42.51;99855.16;10444712;28;20044;-59
2021/08/15 08:31:37;;;;;;;10.15;5.03;;;;;;;24.85;42.54;99851.38;10421326;28;20490;-59
2021/08/15 08:36:39;;;;;;;8.63;4.50;;;;;;;25.46;41.31;99842.94;10476119;28;20052;-60
2021/08/15 08:41:41;;;;;;;10.57;4.90;;;;;;;25.68;40.86;99857.16;10470727;28;20045;-60
2021/08/15 08:46:44;;;;;;;8.35;4.75;;;;;;;26.02;40.28;99838.56;10440978;28;20144;-60
2021/08/15 08:51:47;;;;;;;11.07;4.78;;;;;;;26.23;40.15;99835.88;10444172;28;20088;-60
2021/08/15 08:56:59;;;;;;;13.63;5.50;;;;;;;26.48;39.91;99822.84;10450825;28;20041;-60
2021/08/15 09:02:01;;;;;;;9.60;4.95;;;;;;;26.80;39.29;99813.34;10449701;28;20521;-60
2021/08/15 09:07:14;;;;;;;9.98;4.65;;;;;;;27.12;38.59;99808.13;10437879;28;20053;-60
2021/08/15 09:12:16;;;;;;;11.07;4.70;;;;;;;27.38;37.92;99805.56;10449106;28;20080;-60
2021/08/15 09:17:18;;;;;;;11.43;4.40;;;;;;;27.49;37.30;99807.66;10446199;28;20045;-60
2021/08/15 09:22:23;;;;;;;10.25;4.95;;;;;;;27.87;37.77;99794.50;10445911;28;20079;-60
2021/08/15 09:27:36;;;;;;;9.15;4.18;;;;;;;28.04;37.25;99800.31;10425866;28;20045;-60
2021/08/15 09:32:46;;;;;;;8.60;4.28;;;;;;;27.83;37.11;99785.19;10443019;28;20041;-60
2021/08/15 09:38:04;;;;;;;7.30;3.65;;;;;;;28.42;36.24;99784.38;10450007;28;20600;-61
2021/08/15 09:43:10;;;;;;;9.35;3.40;;;;;;;28.85;34.09;99767.50;10442764;28;20080;-60
2021/08/15 09:48:28;;;;;;;6.57;3.13;;;;;;;28.45;32.81;99771.31;10449357;28;20048;-60
2021/08/15 09:53:30;;;;;;;8.20;3.17;;;;;;;27.99;33.17;99765.16;10412062;28;20073;-60
2021/08/15 09:58:32;;;;;;;7.57;3.30;;;;;;;28.11;32.97;99768.88;10444299;28;20073;-61
2021/08/15 10:03:41;;;;;;;5.63;3.10;;;;;;;28.42;33.28;99765.53;10448834;28;20069;-60
2021/08/15 10:08:43;;;;;;;4.68;2.50;;;;;;;28.58;31.07;99762.41;10446585;28;20057;-60
2021/08/15 10:13:45;;;;;;;6.00;2.50;;;;;;;28.71;29.68;99760.47;10448183;28;20090;-61
2021/08/15 10:18:52;;;;;;;5.13;2.50;;;;;;;28.90;29.13;99748.84;10448113;28;20114;-60
2021/08/15 10:24:09;;;;;;;6.20;2.67;;;;;;;29.07;29.47;99744.59;10448347;28;20041;-61
2021/08/15 10:29:36;;;;;;;6.72;2.70;;;;;;;28.92;28.94;99735.16;10445052;28;20483;-60
2021/08/15 10:34:54;;;;;;;5.78;2.67;;;;;;;28.93;30.18;99731.44;10444023;28;20045;-61
2021/08/15 10:40:02;;;;;;;5.70;2.70;;;;;;;28.95;29.61;99735.56;10406277;28;20124;-60
2021/08/15 10:45:25;;;;;;;5.60;2.25;;;;;;;28.56;30.04;99734.88;10407295;28;20088;-60
2021/08/15 10:50:43;;;;;;;6.72;2.45;;;;;;;28.38;30.27;99716.69;10405990;28;20141;-60
2021/08/15 10:55:48;;;;;;;3.80;2.17;;;;;;;28.29;29.89;99712.59;10441087;28;20480;-61
2021/08/15 11:00:50;;;;;;;4.78;2.13;;;;;;;28.40;30.19;99708.44;10446953;28;20070;-60
2021/08/15 11:05:52;;;;;;;4.45;2.10;;;;;;;28.36;29.41;99704.53;10410545;28;20532;-60
2021/08/15 11:11:17;;;;;;;4.35;2.10;;;;;;;28.15;29.22;99706.41;10446393;28;20072;-60
2021/08/15 11:16:25;;;;;;;3.33;2.00;;;;;;;28.13;29.37;99695.03;10445648;28;20556;-60
2021/08/15 11:22:04;;;;;;;3.30;2.00;;;;;;;27.87;29.99;99675.44;10445985;28;20048;-60
2021/08/15 11:27:07;;;;;;;4.45;2.20;;;;;;;27.95;30.50;99672.53;10444159;28;20080;-61
2021/08/15 11:32:13;;;;;;;3.80;2.20;;;;;;;27.97;30.67;99671.25;10440012;28;20045;-60
2021/08/15 11:37:19;;;;;;;3.20;2.05;;;;;;;28.16;30.14;99650.75;10404490;28;20129;-60
2021/08/15 11:42:25;;;;;;;4.13;2.08;;;;;;;28.32;30.23;99639.53;10405542;28;20098;-60
2021/08/15 11:47:32;;;;;;;4.50;2.20;;;;;;;28.40;30.21;99641.19;10404748;28;20120;-60
2021/08/15 11:52:36;;;;;;;4.38;2.00;;;;;;;28.32;29.68;99631.47;10410865;28;20136;-60
2021/08/15 11:57:47;;;;;;;4.07;2.10;;;;;;;28.27;30.08;99624.03;10445245;28;20134;-61
2021/08/15 12:03:01;;;;;;;5.05;1.90;;;;;;;28.50;30.17;99620.88;10436413;28;20084;-61
2021/08/15 12:08:06;;;;;;;2.80;1.80;;;;;;;28.79;28.92;99612.19;10425554;28;20049;-61
2021/08/15 12:13:23;;;;;;;3.28;1.88;;;;;;;29.06;28.74;99599.41;10452229;28;20056;-60
2021/08/15 12:18:42;;;;;;;3.42;1.80;;;;;;;29.13;28.18;99604.75;10453418;28;20072;-60
2021/08/15 12:24:02;;;;;;;4.20;1.60;;;;;;;29.04;26.50;99599.63;10419677;28;20247;-60
2021/08/15 12:29:19;;;;;;;2.67;1.55;;;;;;;28.91;27.94;99588.94;10411716;28;20132;-61
2021/08/15 12:34:23;;;;;;;3.10;1.52;;;;;;;28.86;29.15;99590.66;10449384;28;20144;-60
2021/08/15 12:39:28;;;;;;;2.78;1.60;;;;;;;29.12;27.10;99584.25;10452172;28;20044;-60
2021/08/15 12:44:52;;;;;;;1.73;1.33;;;;;;;29.44;26.68;99572.41;10450292;28;20044;-60
2021/08/15 12:50:17;;;;;;;2.47;1.50;;;;;;;29.79;25.85;99563.53;10439142;28;20485;-60
2021/08/15 12:55:31;;;;;;;2.63;1.40;;;;;;;30.05;25.14;99559.72;10426410;28;20152;-60
2021/08/15 13:00:35;;;;;;;2.30;1.30;;;;;;;29.90;26.23;99556.56;10426833;28;20052;-60
2021/08/15 13:05:40;;;;;;;4.22;1.50;;;;;;;30.16;26.71;99550.88;10409996;28;20111;-60
2021/08/15 13:10:43;;;;;;;2.67;1.50;;;;;;;30.38;24.83;99538.53;10449188;28;20049;-61
2021/08/15 13:15:44;;;;;;;2.35;1.40;;;;;;;30.47;25.60;99530.97;10451099;28;20148;-61
2021/08/15 13:20:46;;;;;;;2.25;1.50;;;;;;;30.35;25.67;99524.69;10412869;28;20046;-60
2021/08/15 13:25:49;;;;;;;3.53;1.70;;;;;;;30.37;26.13;99519.88;10408367;28;20129;-61
2021/08/15 13:30:51;;;;;;;4.25;1.45;;;;;;;30.58;26.21;99514.81;10410431;28;20037;-60
2021/08/15 13:35:53;;;;;;;2.38;1.40;;;;;;;30.63;25.46;99496.06;10408674;28;20136;-60
2021/08/15 13:40:55;;;;;;;3.20;1.38;;;;;;;30.39;24.53;99491.63;10446397;28;20497;-60
2021/08/15 13:45:56;;;;;;;2.63;1.58;;;;;;;30.30;25.58;99492.97;10450346;28;20462;-60
2021/08/15 13:50:58;;;;;;;3.20;1.55;;;;;;;30.37;24.82;99485.63;10447243;28;20048;-60
2021/08/15 13:56:00;;;;;;;3.13;1.35;;;;;;;30.36;25.05;99486.66;10448565;28;20052;-60
2021/08/15 14:01:03;;;;;;;3.20;1.30;;;;;;;30.31;24.04;99470.34;10411507;28;20049;-60
2021/08/15 14:06:06;;;;;;;1.42;1.10;;;;;;;30.32;23.76;99471.16;10410437;28;20515;-60
2021/08/15 14:11:09;;;;;;;2.45;1.20;;;;;;;30.12;23.63;99463.38;10447667;28;20084;-60
2021/08/15 14:16:11;;;;;;;1.42;1.15;;;;;;;30.12;23.21;99457.97;10446702;28;20443;-60
2021/08/15 14:21:14;;;;;;;2.38;1.10;;;;;;;30.18;24.31;99458.91;10446708;28;20128;-60
2021/08/15 14:26:18;;;;;;;1.58;1.30;;;;;;;30.28;24.34;99457.31;10443670;28;20046;-60
2021/08/15 14:31:21;;;;;;;1.95;1.20;;;;;;;30.39;24.75;99448.44;10405760;28;20582;-60
2021/08/15 14:36:23;;;;;;;2.03;1.30;;;;;;;30.18;24.65;99440.88;10407775;28;20056;-60
2021/08/15 14:41:25;;;;;;;2.45;1.27;;;;;;;30.31;25.15;99435.28;10406184;28;20103;-60
2021/08/15 14:46:27;;;;;;;2.58;1.30;;;;;;;30.49;25.07;99443.34;10430567;28;20122;-60
2021/08/15 14:51:32;;;;;;;5.90;1.40;;;;;;;30.47;26.15;99434.66;10447791;28;20129;-60
2021/08/15 14:56:33;;;;;;;2.47;1.30;;;;;;;30.59;25.46;99427.38;10424807;28;20055;-60
2021/08/15 15:01:35;;;;;;;2.45;1.48;;;;;;;30.40;25.74;99431.19;10405732;28;20391;-61
2021/08/15 15:06:38;;;;;;;2.65;1.40;;;;;;;30.39;26.53;99428.72;10431286;28;20502;-62
2021/08/15 15:11:40;;;;;;;5.00;1.42;;;;;;;30.38;27.07;99424.38;10445812;28;20047;-61
2021/08/15 15:16:42;;;;;;;5.97;1.70;;;;;;;30.14;27.39;99410.00;10432943;28;20118;-61
2021/08/15 15:21:44;;;;;;;3.00;1.75;;;;;;;29.91;27.61;99409.09;10441695;28;20047;-61
2021/08/15 15:26:47;;;;;;;5.90;1.70;;;;;;;29.75;27.78;99402.44;10439066;28;20076;-61
2021/08/15 15:31:48;;;;;;;4.20;1.50;;;;;;;29.62;28.50;99397.25;10443684;28;20127;-61
2021/08/15 15:36:51;;;;;;;3.75;1.70;;;;;;;29.51;28.39;99396.13;10417883;28;20124;-61
2021/08/15 15:41:53;;;;;;;3.60;1.50;;;;;;;29.53;28.45;99393.19;10402669;28;20640;-61
2021/08/15 15:46:55;;;;;;;6.07;1.60;;;;;;;29.71;28.25;99385.91;10404255;28;20057;-61
2021/08/15 15:51:57;;;;;;;4.72;1.63;;;;;;;29.45;28.47;99394.34;10403621;28;20133;-61
2021/08/15 15:56:59;;;;;;;2.80;1.58;;;;;;;29.38;28.66;99387.38;10404105;28;20096;-61
2021/08/15 16:02:01;;;;;;;2.97;1.65;;;;;;;29.27;29.01;99394.31;10403543;28;20150;-61
2021/08/15 16:07:07;;;;;;;3.53;1.70;;;;;;;29.43;28.89;99391.06;10427625;28;20044;-61
2021/08/15 16:12:13;;;;;;;5.40;1.80;;;;;;;29.59;28.94;99395.00;10444202;28;20530;-61
2021/08/15 16:17:15;;;;;;;3.17;1.70;;;;;;;29.60;29.02;99388.56;10417102;28;20128;-61
2021/08/15 16:22:19;;;;;;;3.92;1.77;;;;;;;29.72;29.21;99392.94;10402726;28;20077;-61
2021/08/15 16:27:20;;;;;;;5.55;1.73;;;;;;;29.68;28.97;99385.56;10425382;28;20081;-62
2021/08/15 16:32:23;;;;;;;4.82;1.70;;;;;;;29.72;27.95;99376.75;10401296;28;20056;-61
2021/08/15 16:37:24;;;;;;;3.15;1.55;;;;;;;29.41;29.00;99365.38;10411724;28;20465;-61
2021/08/15 16:42:26;;;;;;;4.00;1.60;;;;;;;29.17;30.11;99355.50;10401795;28;20054;-62
2021/08/15 16:47:28;;;;;;;3.15;1.80;;;;;;;28.85;31.01;99357.50;10414531;28;20132;-61
2021/08/15 16:52:30;;;;;;;3.45;1.85;;;;;;;28.53;31.78;99353.22;10444864;28;20096;-61
2021/08/15 16:57:32;;;;;;;4.97;1.92;;;;;;;28.23;32.10;99351.19;10448742;28;20045;-61
2021/08/15 17:02:33;;;;;;;3.80;1.80;;;;;;;27.96;32.25;99363.16;10450682;28;20044;-61
2021/08/15 17:07:35;;;;;;;5.22;2.17;;;;;;;27.80;31.91;99346.72;10423928;28;20417;-61
2021/08/15 17:12:38;;;;;;;2.30;1.38;;;;;;;27.74;31.81;99344.91;10450029;28;20045;-61
2021/08/15 17:17:42;;;;;;;3.03;1.67;;;;;;;27.62;31.86;99338.53;10410189;28;20046;-61
2021/08/15 17:22:44;;;;;;;6.95;1.70;;;;;;;27.57;32.33;99343.72;10408282;28;20099;-61
2021/08/15 17:27:45;;;;;;;5.10;2.00;;;;;;;27.38;34.73;99340.13;10449080;28;20310;-61
2021/08/15 17:32:52;;;;;;;5.22;1.90;;;;;;;27.30;35.31;99330.44;10449753;28;20111;-61
2021/08/15 17:37:58;;;;;;;3.97;1.67;;;;;;;27.09;35.95;99338.75;10448224;28;20087;-61
2021/08/15 17:43:01;;;;;;;5.47;1.75;;;;;;;26.91;36.69;99333.25;10448992;28;20102;-61
2021/08/15 17:48:03;;;;;;;3.60;1.75;;;;;;;26.72;37.57;99342.16;10447389;28;20660;-61
2021/08/15 17:53:06;;;;;;;4.28;1.80;;;;;;;26.47;38.14;99338.44;10448405;28;20059;-61
2021/08/15 17:58:07;;;;;;;4.47;2.10;;;;;;;26.22;38.54;99351.63;10407174;28;20049;-61
2021/08/15 18:03:09;;;;;;;5.90;1.75;;;;;;;26.05;39.14;99355.78;10407178;28;20048;-62
2021/08/15 18:08:12;;;;;;;4.05;1.92;;;;;;;25.90;38.67;99357.75;10425457;28;20057;-61
2021/08/15 18:13:14;;;;;;;6.63;2.38;;;;;;;25.62;41.28;99357.91;10445256;28;20053;-61
2021/08/15 18:18:16;;;;;;;5.00;2.25;;;;;;;25.33;42.55;99344.81;10444417;28;20045;-61
2021/08/15 18:23:19;;;;;;;6.30;2.03;;;;;;;25.08;42.86;99349.03;10446038;28;20049;-61
2021/08/15 18:28:21;;;;;;;4.70;2.00;;;;;;;24.84;43.44;99344.97;10447329;28;20087;-61
2021/08/15 18:33:23;;;;;;;3.65;2.13;;;;;;;24.57;44.13;99347.66;10445644;28;20119;-61
2021/08/15 18:38:27;;;;;;;4.10;2.17;;;;;;;24.33;43.76;99353.44;10447139;28;20127;-62
2021/08/15 18:43:28;;;;;;;6.50;2.67;;;;;;;24.05;45.06;99354.19;10444834;28;20077;-61
2021/08/15 18:48:30;;;;;;;4.68;2.10;;;;;;;23.81;45.66;99345.72;10405590;28;20089;-61
2021/08/15 18:53:32;;;;;;;5.05;2.03;;;;;;;23.69;45.89;99358.75;10406043;28;20091;-61
2021/08/15 18:58:34;;;;;;;6.75;1.90;;;;;;;23.52;45.78;99362.66;10405519;28;20478;-61
2021/08/15 19:03:35;;;;;;;5.07;2.30;;;;;;;23.26;47.02;99357.81;10408149;28;20057;-61
2021/08/15 19:08:37;;;;;;;6.18;2.20;;;;;;;23.04;47.70;99352.59;10446200;28;20115;-61
2021/08/15 19:13:39;;;;;;;9.73;2.83;;;;;;;22.86;48.06;99339.63;10445240;28;20088;-61
2021/08/15 19:18:40;;;;;;;8.73;2.15;;;;;;;22.62;48.73;99324.69;10404934;28;20491;-61
2021/08/15 19:23:42;;;;;;;5.72;2.00;;;;;;;22.46;49.21;99340.88;10406349;28;20047;-63
2021/08/15 19:28:44;;;;;;;10.27;2.40;;;;;;;22.15;49.79;99334.81;10445757;28;20475;-63
2021/08/15 19:33:46;;;;;;;8.05;2.28;;;;;;;21.96;50.30;99337.13;10444601;28;21773;-63
2021/08/15 19:38:49;;;;;;;5.88;2.05;;;;;;;21.89;50.74;99342.31;10445388;28;20095;-63
2021/08/15 19:43:54;;;;;;;7.07;2.50;;;;;;;21.83;50.73;99341.22;10443446;28;20087;-63
2021/08/15 19:48:56;;;;;;;5.25;2.00;;;;;;;21.61;51.40;99335.88;10404794;28;20105;-63
2021/08/15 19:54:01;;;;;;;6.90;2.20;;;;;;;21.20;52.39;99337.06;10404831;28;20303;-63
2021/08/15 19:59:02;;;;;;;7.20;2.30;;;;;;;20.83;53.53;99321.75;10404339;28;20048;-63
2021/08/15 20:04:04;;;;;;;10.95;3.05;;;;;;;20.69;53.96;99323.31;10422620;28;20124;-63
2021/08/15 20:09:06;;;;;;;5.30;2.30;;;;;;;20.81;53.49;99316.63;10444468;28;20433;-63
2021/08/15 20:14:08;;;;;;;7.10;2.40;;;;;;;20.57;54.32;99307.84;10443551;28;20073;-63
2021/08/15 20:19:12;;;;;;;6.00;2.30;;;;;;;20.63;54.00;99312.53;10403958;28;20049;-63
2021/08/15 20:24:14;;;;;;;7.72;2.50;;;;;;;20.73;54.24;99321.97;10405392;28;20049;-63
2021/08/15 20:29:15;;;;;;;7.43;2.30;;;;;;;20.82;53.90;99322.78;10449062;28;20128;-62
2021/08/15 20:34:17;;;;;;;9.27;2.50;;;;;;;20.86;53.89;99322.25;10450824;28;20080;-63
2021/08/15 20:39:19;;;;;;;10.27;2.67;;;;;;;20.83;54.12;99317.28;10451877;28;20107;-63
2021/08/15 20:44:21;;;;;;;5.43;2.40;;;;;;;20.74;54.49;99318.28;10450670;28;20081;-63
2021/08/15 20:49:23;;;;;;;7.68;2.55;;;;;;;20.70;54.33;99316.97;10411241;28;20073;-62
2021/08/15 20:54:25;;;;;;;7.78;2.63;;;;;;;20.70;54.31;99303.69;10411779;28;20081;-63
2021/08/15 20:59:26;;;;;;;6.50;2.55;;;;;;;20.63;54.73;99294.75;10450642;28;20083;-63
2021/08/15 21:04:28;;;;;;;7.78;2.40;;;;;;;20.59;54.85;99304.06;10448605;28;20124;-63
2021/08/15 21:09:30;;;;;;;5.97;2.50;;;;;;;20.48;54.97;99293.75;10441456;28;20489;-63
2021/08/15 21:14:32;;;;;;;10.75;2.45;;;;;;;20.42;55.08;99302.41;10449584;28;20147;-63
2021/08/15 21:19:34;;;;;;;7.63;2.55;;;;;;;20.46;54.60;99301.06;10426083;28;20072;-63
2021/08/15 21:24:37;;;;;;;8.40;2.45;;;;;;;20.45;54.56;99288.81;10450205;28;20577;-63
2021/08/15 21:29:38;;;;;;;9.57;2.47;;;;;;;20.46;55.01;99284.31;10434982;28;20087;-63
2021/08/15 21:34:40;;;;;;;8.45;2.17;;;;;;;20.48;55.10;99293.75;10429734;28;20076;-63
2021/08/15 21:39:42;;;;;;;10.02;2.50;;;;;;;20.44;55.15;99286.31;10434365;28;20653;-63
2021/08/15 21:44:45;;;;;;;7.32;2.25;;;;;;;20.33;55.31;99279.53;10446462;28;20084;-63
2021/08/15 21:49:47;;;;;;;6.45;2.70;;;;;;;20.22;55.47;99283.38;10440000;28;20469;-63
2021/08/15 21:54:50;;;;;;;5.97;2.47;;;;;;;20.23;55.58;99273.59;10448798;28;20131;-62
2021/08/15 21:59:52;;;;;;;6.30;2.28;;;;;;;20.16;55.74;99280.53;10448585;28;20063;-63
2021/08/15 22:04:53;;;;;;;7.43;2.65;;;;;;;20.10;56.08;99274.09;10436681;28;20476;-63
2021/08/15 22:09:55;;;;;;;5.90;2.50;;;;;;;20.01;56.12;99274.28;10447787;28;20522;-63
2021/08/15 22:14:57;;;;;;;6.18;2.50;;;;;;;19.71;56.92;99272.25;10436125;28;20552;-63
2021/08/15 22:19:59;;;;;;;4.57;2.17;;;;;;;19.65;57.11;99268.44;10418069;28;20040;-62
2021/08/15 22:25:03;;;;;;;7.00;2.40;;;;;;;19.53;57.04;99267.09;10435401;28;20107;-62
2021/08/15 22:30:11;;;;;;;7.15;2.40;;;;;;;19.43;57.68;99269.91;10454445;28;20124;-63
2021/08/15 22:35:14;;;;;;;8.68;2.28;;;;;;;19.23;57.96;99268.56;10460445;28;20493;-62
2021/08/15 22:40:16;;;;;;;8.82;2.40;;;;;;;19.21;57.88;99264.41;10429207;28;20083;-62
2021/08/15 22:45:18;;;;;;;8.80;2.55;;;;;;;19.19;57.93;99261.09;10445616;28;20123;-63
2021/08/15 22:50:19;;;;;;;6.47;2.58;;;;;;;19.26;57.49;99267.38;10445491;28;20128;-62
2021/08/15 22:55:21;;;;;;;8.75;2.40;;;;;;;19.36;57.56;99263.59;10440265;28;20560;-63
2021/08/15 23:00:23;;;;;;;6.63;2.67;;;;;;;19.39;57.44;99265.94;10432045;28;20128;-63
2021/08/15 23:05:25;;;;;;;7.82;2.67;;;;;;;19.17;57.72;99263.06;10445295;28;20049;-62
2021/08/15 23:10:27;;;;;;;7.47;2.50;;;;;;;19.08;58.05;99270.16;10432140;28;20077;-63
2021/08/15 23:15:30;;;;;;;8.52;2.80;;;;;;;19.15;58.28;99286.25;10418409;28;20045;-62
2021/08/15 23:20:31;;;;;;;5.15;2.40;;;;;;;19.03;57.90;99298.94;10442728;28;20543;-63
2021/08/15 23:25:33;;;;;;;11.50;2.55;;;;;;;18.93;58.25;99298.22;10457885;28;20095;-62